Terminal Aerodrome Forecast
Issued by NWS Brownsville, TX

Home | Current Version | Previous Version | Text Only | Print | Product List | Glossary On
Versions: 1 2 3 4 5 6 7 8 9 10 11 12 13 14 15 16 17 18 19 20 21
000
FTUS44 KBRO 222000 AAA
TAFHRL
TAF AMD
KHRL 222009Z 2220/2318 07014KT P6SM SCT035 BKN150
     FM230100 07006KT P6SM SCT030 SCT060
     FM230600 04005KT P6SM SCT050
     FM230900 36005KT P6SM SCT060
     FM231300 03005KT P6SM SCT030=

USA.gov is the U.S. government's official web portal to all federal, state and local government web resources and services.